createdAt,value
2022-09-13T00:00:51.393Z,15.15
2022-09-13T00:03:19.233Z,15.16
2022-09-13T00:05:47.216Z,15.15
2022-09-13T00:08:16.236Z,15.15
2022-09-13T00:10:45.315Z,15.13
2022-09-13T00:13:14.085Z,15.14
2022-09-13T00:15:46.052Z,15.13
2022-09-13T00:18:13.542Z,15.15
2022-09-13T00:20:41.171Z,15.11
2022-09-13T00:23:08.844Z,15.10
2022-09-13T00:25:36.467Z,15.10
2022-09-13T00:28:04.807Z,15.11
2022-09-13T00:30:32.608Z,15.11
2022-09-13T00:33:04.360Z,15.10
2022-09-13T00:35:32.687Z,15.12
2022-09-13T00:38:01.814Z,15.12
2022-09-13T00:40:30.352Z,15.11
2022-09-13T00:42:58.108Z,15.12
2022-09-13T00:45:25.833Z,15.13
2022-09-13T00:47:58.676Z,15.13
2022-09-13T00:50:33.790Z,15.16
2022-09-13T00:53:06.383Z,15.18
2022-09-13T00:55:38.304Z,15.19
2022-09-13T00:58:09.516Z,15.20
2022-09-13T01:00:38.858Z,15.21
2022-09-13T01:03:11.781Z,15.22
2022-09-13T01:05:45.074Z,15.23
2022-09-13T01:08:22.240Z,15.23
2022-09-13T01:10:52.088Z,15.26
2022-09-13T01:13:21.840Z,15.27
2022-09-13T01:15:49.619Z,15.27
2022-09-13T01:18:17.618Z,15.29
2022-09-13T01:21:14.834Z,15.31
2022-09-13T01:24:19.150Z,15.33
2022-09-13T01:27:06.567Z,15.34
2022-09-13T01:30:07.964Z,15.36
2022-09-13T01:32:56.265Z,15.37
2022-09-13T01:35:34.207Z,15.38
2022-09-13T01:38:14.594Z,15.40
2022-09-13T01:40:52.344Z,15.41
2022-09-13T01:43:33.214Z,15.44
2022-09-13T01:46:06.352Z,15.44
2022-09-13T01:48:46.867Z,15.46
2022-09-13T01:51:21.666Z,15.47
2022-09-13T01:53:56.236Z,15.48
2022-09-13T01:56:29.059Z,15.49
2022-09-13T01:59:00.287Z,15.52
2022-09-13T02:01:34.382Z,15.52
2022-09-13T02:04:09.748Z,15.51
2022-09-13T02:06:45.533Z,15.53
2022-09-13T02:09:21.341Z,15.53
2022-09-13T02:11:54.840Z,15.55
2022-09-13T02:14:25.988Z,15.55
2022-09-13T02:17:00.649Z,15.57
2022-09-13T02:19:35.076Z,15.55
2022-09-13T02:22:05.751Z,15.56
2022-09-13T02:24:35.482Z,15.57
2022-09-13T02:27:08.031Z,15.56
2022-09-13T02:29:38.567Z,15.57
2022-09-13T02:32:14.641Z,15.57
2022-09-13T02:34:47.000Z,15.58
2022-09-13T02:37:14.932Z,15.62
2022-09-13T02:39:47.985Z,15.60
2022-09-13T02:42:19.912Z,15.61
2022-09-13T02:44:49.794Z,15.63
2022-09-13T02:47:32.340Z,15.61
2022-09-13T02:50:15.710Z,15.64
2022-09-13T02:52:51.809Z,15.63
2022-09-13T02:55:22.544Z,15.62
2022-09-13T02:57:56.870Z,15.63
2022-09-13T03:00:24.459Z,15.64
2022-09-13T03:02:55.671Z,15.65
2022-09-13T03:05:23.297Z,15.67
2022-09-13T03:07:52.620Z,15.66
2022-09-13T03:10:23.103Z,15.68
2022-09-13T03:13:12.564Z,15.69
2022-09-13T03:15:57.856Z,15.70
2022-09-13T03:18:42.228Z,15.70
2022-09-13T03:21:24.479Z,15.71
2022-09-13T03:24:06.096Z,15.70
2022-09-13T03:26:55.502Z,15.72
2022-09-13T03:29:31.341Z,15.73
2022-09-13T03:32:09.967Z,15.75
2022-09-13T03:34:47.692Z,15.75
2022-09-13T03:37:24.012Z,15.76
2022-09-13T03:39:57.151Z,15.78
2022-09-13T03:42:32.120Z,15.78
2022-09-13T03:45:03.375Z,15.81
2022-09-13T03:47:36.398Z,15.80
2022-09-13T03:50:08.256Z,15.79
2022-09-13T03:52:36.681Z,15.79
2022-09-13T03:55:04.759Z,15.77
2022-09-13T03:57:32.418Z,15.77
2022-09-13T04:00:00.259Z,15.79
2022-09-13T04:02:28.342Z,15.80
2022-09-13T04:04:56.268Z,15.81
2022-09-13T04:07:26.967Z,15.81
2022-09-13T04:09:54.550Z,15.82
2022-09-13T04:12:22.120Z,15.81
2022-09-13T04:14:49.784Z,15.82
2022-09-13T04:17:17.681Z,15.83
2022-09-13T04:19:47.020Z,15.85
2022-09-13T04:22:15.032Z,15.85
2022-09-13T04:24:44.281Z,15.86
2022-09-13T04:27:12.264Z,15.88
2022-09-13T04:29:39.780Z,15.89
2022-09-13T04:32:07.556Z,15.90
2022-09-13T04:34:35.178Z,15.91
2022-09-13T04:37:02.714Z,15.91
2022-09-13T04:39:30.551Z,15.92
2022-09-13T04:41:59.836Z,15.90
2022-09-13T04:44:27.569Z,15.92
2022-09-13T04:46:55.773Z,15.91
2022-09-13T04:49:23.457Z,15.93
2022-09-13T04:51:51.041Z,15.94
2022-09-13T04:54:18.988Z,15.93
2022-09-13T04:56:47.046Z,15.96
2022-09-13T04:59:16.790Z,15.97
2022-09-13T05:01:44.649Z,15.97
2022-09-13T05:04:13.040Z,15.99
2022-09-13T05:06:40.575Z,16.00
2022-09-13T05:09:08.176Z,16.01
2022-09-13T05:11:35.836Z,16.03
2022-09-13T05:14:03.932Z,16.03
2022-09-13T05:16:34.578Z,16.06
2022-09-13T05:19:02.620Z,16.08
2022-09-13T05:21:30.283Z,16.06
2022-09-13T05:23:58.990Z,16.06
2022-09-13T05:26:29.251Z,16.08
2022-09-13T05:28:56.887Z,16.08
2022-09-13T05:31:26.022Z,16.10
2022-09-13T05:33:57.684Z,16.10
2022-09-13T05:36:26.159Z,16.11
2022-09-13T05:39:12.234Z,16.11
2022-09-13T05:41:40.062Z,16.11
2022-09-13T05:44:12.965Z,16.12
2022-09-13T05:46:42.123Z,16.11
2022-09-13T05:49:13.410Z,16.12
2022-09-13T05:51:41.362Z,16.15
2022-09-13T05:54:09.404Z,16.15
2022-09-13T05:56:37.208Z,16.15
2022-09-13T05:59:04.842Z,16.16
2022-09-13T06:01:32.503Z,16.17
2022-09-13T06:04:00.608Z,16.19
2022-09-13T06:06:29.518Z,16.19
2022-09-13T06:08:58.674Z,16.22
2022-09-13T06:11:27.578Z,16.24
2022-09-13T06:13:55.210Z,16.26
2022-09-13T06:16:22.834Z,16.28
2022-09-13T06:18:50.879Z,16.31
2022-09-13T06:21:20.776Z,16.34
2022-09-13T06:23:51.759Z,16.37
2022-09-13T06:26:21.627Z,16.41
2022-09-13T06:28:50.204Z,16.44
2022-09-13T06:31:19.692Z,16.47
2022-09-13T06:33:47.376Z,16.50
2022-09-13T06:36:18.037Z,16.53
2022-09-13T06:38:46.594Z,16.58
2022-09-13T06:41:18.610Z,16.60
2022-09-13T06:43:47.792Z,16.63
2022-09-13T06:46:23.905Z,16.65
2022-09-13T06:48:52.705Z,16.68
2022-09-13T06:51:22.196Z,16.71
2022-09-13T06:53:51.903Z,16.75
2022-09-13T06:56:22.972Z,16.80
2022-09-13T06:58:52.609Z,16.84
2022-09-13T07:01:23.099Z,16.91
2022-09-13T07:03:52.527Z,16.99
2022-09-13T07:06:22.703Z,17.07
2022-09-13T07:08:52.432Z,17.17
2022-09-13T07:11:22.981Z,17.26
2022-09-13T07:13:51.002Z,17.36
2022-09-13T07:16:20.108Z,17.45
2022-09-13T07:18:52.371Z,17.54
2022-09-13T07:21:20.578Z,17.65
2022-09-13T07:23:48.227Z,17.75
2022-09-13T07:26:16.413Z,17.83
2022-09-13T07:28:46.668Z,17.91
2022-09-13T07:31:16.783Z,17.99
2022-09-13T07:33:45.870Z,18.06
2022-09-13T07:36:14.365Z,18.12
2022-09-13T07:38:44.572Z,18.17
2022-09-13T07:41:14.269Z,18.23
2022-09-13T07:43:41.894Z,18.27
2022-09-13T07:46:12.332Z,18.31
2022-09-13T07:48:41.908Z,18.36
2022-09-13T07:51:11.768Z,18.40
2022-09-13T07:53:41.677Z,18.45
2022-09-13T07:56:11.422Z,18.51
2022-09-13T07:58:40.450Z,18.56
2022-09-13T08:01:12.212Z,18.59
2022-09-13T08:03:39.792Z,18.67
2022-09-13T08:06:08.724Z,18.68
2022-09-13T08:08:37.620Z,18.74
2022-09-13T08:11:07.163Z,18.77
2022-09-13T08:13:35.413Z,18.81
2022-09-13T08:16:06.160Z,18.87
2022-09-13T08:18:35.159Z,18.90
2022-09-13T08:21:02.882Z,18.92
2022-09-13T08:23:31.171Z,18.98
2022-09-13T08:26:02.524Z,18.99
2022-09-13T08:28:31.496Z,19.02
2022-09-13T08:31:04.821Z,19.06
2022-09-13T08:33:33.420Z,19.10
2022-09-13T08:36:02.939Z,19.14
2022-09-13T08:38:30.955Z,19.18
2022-09-13T08:41:01.022Z,19.23
2022-09-13T08:43:41.922Z,19.26
2022-09-13T08:46:17.049Z,19.28
2022-09-13T08:48:48.143Z,19.30
2022-09-13T08:51:30.495Z,19.36
2022-09-13T08:53:59.142Z,19.37
2022-09-13T08:56:36.459Z,19.38
2022-09-13T08:59:33.091Z,19.45
2022-09-13T09:02:20.407Z,19.51
2022-09-13T09:04:56.454Z,19.57
2022-09-13T09:07:29.069Z,19.64
2022-09-13T09:09:59.076Z,19.71
2022-09-13T09:12:35.100Z,19.77
2022-09-13T09:15:12.977Z,19.85
2022-09-13T09:17:47.303Z,19.91
2022-09-13T09:20:25.582Z,20.00
2022-09-13T09:22:56.143Z,20.06
2022-09-13T09:25:26.142Z,20.11
2022-09-13T09:27:54.694Z,20.15
2022-09-13T09:30:22.457Z,20.21
2022-09-13T09:33:01.736Z,20.27
2022-09-13T09:35:47.588Z,20.35
2022-09-13T09:38:33.104Z,20.42
2022-09-13T09:41:05.774Z,20.41
2022-09-13T09:43:39.786Z,20.49
2022-09-13T09:46:11.775Z,20.56
2022-09-13T09:48:45.872Z,20.63
2022-09-13T09:51:17.244Z,20.67
2022-09-13T09:53:50.357Z,20.72
2022-09-13T09:56:24.337Z,20.82
2022-09-13T09:58:54.050Z,20.91
2022-09-13T10:01:25.454Z,20.99
2022-09-13T10:04:04.515Z,21.11
2022-09-13T10:06:32.741Z,21.18
2022-09-13T10:09:04.664Z,21.25
2022-09-13T10:11:45.228Z,21.34
2022-09-13T10:14:40.285Z,21.39
2022-09-13T10:17:18.049Z,21.41
2022-09-13T10:19:54.374Z,21.44
2022-09-13T10:22:22.954Z,21.43
2022-09-13T10:24:52.287Z,21.47
2022-09-13T10:27:27.740Z,21.50
2022-09-13T10:29:59.663Z,21.52
2022-09-13T10:32:29.343Z,21.55
2022-09-13T10:35:03.864Z,21.58
2022-09-13T10:37:35.333Z,21.60
2022-09-13T10:40:09.718Z,21.60
2022-09-13T10:42:37.638Z,21.62
2022-09-13T10:45:07.544Z,21.65
2022-09-13T10:47:40.268Z,21.67
2022-09-13T10:50:20.379Z,21.69
2022-09-13T10:52:49.658Z,21.70
2022-09-13T10:55:34.010Z,21.71
2022-09-13T10:58:29.250Z,21.76
2022-09-13T11:01:31.262Z,21.79
2022-09-13T11:04:20.928Z,21.79
2022-09-13T11:07:01.866Z,21.82
2022-09-13T11:09:37.696Z,21.84
2022-09-13T11:12:15.150Z,21.88
2022-09-13T11:14:54.630Z,21.88
2022-09-13T11:17:35.134Z,21.89
2022-09-13T11:20:16.812Z,21.89
2022-09-13T11:23:02.092Z,21.89
2022-09-13T11:25:45.496Z,21.90
2022-09-13T11:28:23.935Z,21.93
2022-09-13T11:31:06.052Z,21.95
2022-09-13T11:33:47.575Z,21.95
2022-09-13T11:36:30.808Z,21.93
2022-09-13T11:39:09.941Z,21.93
2022-09-13T11:41:47.460Z,21.90
2022-09-13T11:44:46.406Z,21.93
2022-09-13T11:47:26.873Z,21.94
2022-09-13T11:50:10.975Z,21.97
2022-09-13T11:52:49.733Z,22.01
2022-09-13T11:55:19.524Z,22.02
2022-09-13T11:57:50.798Z,22.04
2022-09-13T12:00:23.793Z,22.06
2022-09-13T12:03:02.482Z,22.07
2022-09-13T12:05:34.429Z,22.10
2022-09-13T12:08:07.727Z,22.05
2022-09-13T12:10:41.303Z,22.03
2022-09-13T12:13:15.234Z,22.02
2022-09-13T12:15:47.688Z,22.02
2022-09-13T12:18:21.024Z,22.01
2022-09-13T12:20:51.571Z,21.99
2022-09-13T12:23:24.484Z,21.98
2022-09-13T12:25:57.123Z,21.92
2022-09-13T12:28:29.309Z,21.88
2022-09-13T12:31:02.272Z,21.86
2022-09-13T12:33:29.971Z,21.83
2022-09-13T12:36:17.452Z,21.84
2022-09-13T12:39:08.488Z,21.86
2022-09-13T12:41:53.303Z,21.85
2022-09-13T12:44:55.690Z,21.89
2022-09-13T12:47:55.924Z,21.91
2022-09-13T12:50:50.757Z,21.99
2022-09-13T12:53:36.043Z,22.03
2022-09-13T12:56:21.969Z,22.12
2022-09-13T12:59:20.816Z,22.21
2022-09-13T13:01:52.138Z,22.30
2022-09-13T13:04:23.193Z,22.35
2022-09-13T13:06:54.600Z,22.39
2022-09-13T13:09:29.472Z,22.45
2022-09-13T13:11:59.202Z,22.48
2022-09-13T13:14:46.845Z,22.52
2022-09-13T13:17:44.708Z,22.56
2022-09-13T13:20:45.918Z,22.57
2022-09-13T13:23:26.904Z,22.57
2022-09-13T13:26:11.170Z,22.57
2022-09-13T13:29:13.107Z,22.59
2022-09-13T13:31:43.166Z,22.61
2022-09-13T13:34:48.972Z,22.70
2022-09-13T13:37:37.018Z,22.80
2022-09-13T13:40:26.817Z,22.91
2022-09-13T13:43:18.012Z,23.02
2022-09-13T13:45:59.423Z,23.11
2022-09-13T13:48:40.034Z,23.17
2022-09-13T13:51:21.950Z,23.17
2022-09-13T13:53:51.607Z,23.23
2022-09-13T13:56:30.663Z,23.27
2022-09-13T13:59:04.566Z,23.34
2022-09-13T14:01:35.484Z,23.43
2022-09-13T14:04:29.498Z,23.52
2022-09-13T14:07:06.451Z,23.53
2022-09-13T14:09:53.472Z,23.46
2022-09-13T14:12:33.432Z,23.47
2022-09-13T14:15:24.956Z,23.49
2022-09-13T14:18:31.702Z,23.41
2022-09-13T14:21:01.342Z,23.39
2022-09-13T14:23:29.363Z,23.33
2022-09-13T14:25:59.276Z,23.28
2022-09-13T14:28:29.094Z,23.37
2022-09-13T14:30:58.553Z,23.43
2022-09-13T14:33:32.024Z,23.40
2022-09-13T14:36:03.247Z,23.41
2022-09-13T14:38:35.252Z,23.37
2022-09-13T14:41:14.170Z,23.30
2022-09-13T14:43:44.603Z,23.29
2022-09-13T14:46:18.708Z,23.25
2022-09-13T14:48:51.484Z,23.20
2022-09-13T14:51:24.300Z,23.16
2022-09-13T14:53:55.140Z,23.19
2022-09-13T14:56:32.184Z,23.20
2022-09-13T14:59:04.240Z,23.21
2022-09-13T15:01:34.257Z,23.22
2022-09-13T15:04:05.515Z,23.19
2022-09-13T15:06:35.411Z,23.18
2022-09-13T15:09:16.278Z,23.09
2022-09-13T15:11:57.576Z,23.04
2022-09-13T15:14:30.964Z,22.97
2022-09-13T15:17:02.855Z,22.84
2022-09-13T15:19:37.229Z,22.79
2022-09-13T15:22:12.292Z,22.75
2022-09-13T15:24:45.596Z,22.70
2022-09-13T15:27:20.935Z,22.71
2022-09-13T15:29:56.018Z,22.72
2022-09-13T15:32:30.301Z,22.72
2022-09-13T15:34:59.466Z,22.74
2022-09-13T15:37:36.338Z,22.74
2022-09-13T15:40:15.728Z,22.74
2022-09-13T15:42:47.278Z,22.73
2022-09-13T15:45:17.260Z,22.71
2022-09-13T15:47:48.859Z,22.74
2022-09-13T15:50:22.485Z,22.70
2022-09-13T15:52:50.383Z,22.70
2022-09-13T15:55:18.068Z,22.69
2022-09-13T15:57:46.740Z,22.65
2022-09-13T16:00:23.312Z,22.59
2022-09-13T16:02:51.487Z,22.54
2022-09-13T16:05:19.776Z,22.51
2022-09-13T16:07:47.790Z,22.46
2022-09-13T16:10:18.843Z,22.43
2022-09-13T16:12:47.067Z,22.42
2022-09-13T16:15:14.983Z,22.41
2022-09-13T16:17:43.976Z,22.40
2022-09-13T16:20:13.983Z,22.36
2022-09-13T16:22:41.780Z,22.37
2022-09-13T16:25:11.144Z,22.34
2022-09-13T16:27:38.715Z,22.34
2022-09-13T16:30:07.427Z,22.30
2022-09-13T16:32:35.011Z,22.27
2022-09-13T16:35:03.969Z,22.24
2022-09-13T16:37:31.533Z,22.20
2022-09-13T16:39:59.662Z,22.14
2022-09-13T16:42:27.443Z,22.12
2022-09-13T16:44:54.995Z,22.09
2022-09-13T16:47:22.626Z,22.06
2022-09-13T16:49:50.210Z,22.02
2022-09-13T16:52:19.450Z,21.99
2022-09-13T16:54:49.295Z,21.94
2022-09-13T16:57:16.991Z,21.91
2022-09-13T16:59:46.704Z,21.87
2022-09-13T17:02:14.358Z,21.84
2022-09-13T17:04:42.085Z,21.78
2022-09-13T17:07:09.832Z,21.75
2022-09-13T17:09:40.523Z,21.74
2022-09-13T17:12:08.930Z,21.72
2022-09-13T17:14:37.235Z,21.68
2022-09-13T17:17:04.914Z,21.66
2022-09-13T17:19:34.440Z,21.62
2022-09-13T17:22:04.450Z,21.56
2022-09-13T17:24:32.419Z,21.53
2022-09-13T17:27:01.997Z,21.49
2022-09-13T17:29:30.909Z,21.46
2022-09-13T17:31:59.052Z,21.41
2022-09-13T17:34:26.724Z,21.37
2022-09-13T17:36:54.596Z,21.32
2022-09-13T17:39:22.395Z,21.29
2022-09-13T17:41:51.130Z,21.23
2022-09-13T17:44:20.012Z,21.18
2022-09-13T17:46:47.719Z,21.14
2022-09-13T17:49:15.530Z,21.06
2022-09-13T17:51:43.264Z,20.99
2022-09-13T17:54:12.464Z,20.91
2022-09-13T17:56:41.756Z,20.86
2022-09-13T17:59:12.214Z,20.78
2022-09-13T18:01:43.327Z,20.70
2022-09-13T18:04:12.203Z,20.64
2022-09-13T18:06:42.630Z,20.57
2022-09-13T18:09:11.081Z,20.52
2022-09-13T18:11:39.415Z,20.44
2022-09-13T18:14:07.371Z,20.38
2022-09-13T18:16:35.378Z,20.33
2022-09-13T18:19:04.379Z,20.27
2022-09-13T18:21:32.267Z,20.22
2022-09-13T18:24:01.621Z,20.17
2022-09-13T18:26:30.930Z,20.11
2022-09-13T18:29:01.708Z,20.05
2022-09-13T18:31:30.945Z,20.01
2022-09-13T18:34:01.195Z,19.95
2022-09-13T18:36:31.866Z,19.88
2022-09-13T18:39:04.004Z,19.83
2022-09-13T18:41:32.987Z,19.82
2022-09-13T18:44:00.509Z,19.70
2022-09-13T18:46:30.349Z,19.65
2022-09-13T18:48:58.812Z,19.59
2022-09-13T18:51:28.653Z,19.54
2022-09-13T18:53:58.960Z,19.47
2022-09-13T18:56:26.936Z,19.44
2022-09-13T18:58:55.519Z,19.40
2022-09-13T19:01:26.017Z,19.35
2022-09-13T19:03:55.899Z,19.31
2022-09-13T19:06:25.903Z,19.25
2022-09-13T19:08:55.107Z,19.21
2022-09-13T19:14:17.631Z,19.11
2022-09-13T19:16:45.700Z,19.06
2022-09-13T19:19:13.288Z,19.01
2022-09-13T19:21:41.859Z,18.98
2022-09-13T19:24:16.186Z,18.91
2022-09-13T19:26:47.198Z,18.85
2022-09-13T19:29:17.442Z,18.82
2022-09-13T19:31:48.262Z,18.78
2022-09-13T19:34:17.706Z,18.76
2022-09-13T19:36:45.437Z,18.70
2022-09-13T19:39:13.664Z,18.65
2022-09-13T19:41:41.724Z,18.60
2022-09-13T19:44:12.030Z,18.56
2022-09-13T19:46:41.695Z,18.51
2022-09-13T19:49:13.616Z,18.49
2022-09-13T19:51:45.537Z,18.47
2022-09-13T19:54:18.736Z,18.41
2022-09-13T19:56:46.547Z,18.38
2022-09-13T19:59:19.903Z,18.34
2022-09-13T20:01:48.754Z,18.31
2022-09-13T20:04:18.598Z,18.26
2022-09-13T20:06:48.495Z,18.24
2022-09-13T20:09:18.122Z,18.20
2022-09-13T20:11:48.701Z,18.17
2022-09-13T20:14:20.196Z,18.12
2022-09-13T20:16:48.781Z,18.08
2022-09-13T20:19:39.839Z,18.04
2022-09-13T20:22:09.119Z,18.01
2022-09-13T20:24:36.773Z,17.95
2022-09-13T20:27:05.353Z,17.94
2022-09-13T20:29:34.526Z,17.89
2022-09-13T20:32:02.661Z,17.89
2022-09-13T20:34:31.002Z,17.87
2022-09-13T20:36:58.760Z,17.84
2022-09-13T20:39:26.656Z,17.82
2022-09-13T20:41:54.608Z,17.81
2022-09-13T20:44:22.234Z,17.79
2022-09-13T20:46:51.516Z,17.77
2022-09-13T20:49:19.621Z,17.75
2022-09-13T20:51:49.247Z,17.71
2022-09-13T20:54:17.321Z,17.69
2022-09-13T20:56:46.216Z,17.68
2022-09-13T20:59:14.472Z,17.66
2022-09-13T21:01:42.148Z,17.63
2022-09-13T21:04:11.061Z,17.60
2022-09-13T21:07:01.036Z,17.57
2022-09-13T21:09:28.086Z,17.55
2022-09-13T21:11:55.853Z,17.50
2022-09-13T21:14:23.600Z,17.48
2022-09-13T21:16:51.323Z,17.45
2022-09-13T21:19:20.353Z,17.42
2022-09-13T21:21:48.441Z,17.39
2022-09-13T21:24:16.153Z,17.36
2022-09-13T21:26:43.700Z,17.35
2022-09-13T21:29:12.334Z,17.33
2022-09-13T21:31:40.802Z,17.30
2022-09-13T21:34:14.075Z,17.28
2022-09-13T21:36:43.666Z,17.26
2022-09-13T21:39:12.423Z,17.24
2022-09-13T21:41:40.290Z,17.20
2022-09-13T21:44:08.076Z,17.18
2022-09-13T21:46:38.065Z,17.15
2022-09-13T21:49:07.998Z,17.13
2022-09-13T21:51:37.423Z,17.09
2022-09-13T21:54:08.936Z,17.07
2022-09-13T21:56:38.206Z,17.05
2022-09-13T21:59:08.464Z,17.04
2022-09-13T22:01:39.285Z,17.03
2022-09-13T22:04:07.924Z,17.02
2022-09-13T22:06:35.557Z,17.00
2022-09-13T22:09:07.349Z,16.98
2022-09-13T22:11:38.499Z,16.98
2022-09-13T22:14:07.293Z,16.97
2022-09-13T22:16:37.426Z,16.96
2022-09-13T22:19:09.290Z,16.95
2022-09-13T22:21:39.902Z,16.94
2022-09-13T22:24:10.657Z,16.94
2022-09-13T22:26:40.376Z,16.93
2022-09-13T22:29:09.618Z,16.94
2022-09-13T22:31:39.998Z,16.93
2022-09-13T22:34:08.779Z,16.94
2022-09-13T22:36:36.573Z,16.93
2022-09-13T22:39:04.903Z,16.94
2022-09-13T22:41:35.029Z,16.93
2022-09-13T22:44:04.493Z,16.93
2022-09-13T22:46:33.754Z,16.93
2022-09-13T22:49:01.999Z,16.95
2022-09-13T22:51:30.043Z,16.94
2022-09-13T22:53:58.364Z,16.94
2022-09-13T22:56:28.639Z,16.94
2022-09-13T22:59:00.091Z,16.93
2022-09-13T23:01:29.422Z,16.94
2022-09-13T23:03:58.271Z,16.94
2022-09-13T23:06:26.880Z,16.93
2022-09-13T23:08:56.188Z,16.93
2022-09-13T23:11:26.200Z,16.94
2022-09-13T23:13:55.137Z,16.94
2022-09-13T23:16:26.195Z,16.93
2022-09-13T23:18:54.935Z,16.93
2022-09-13T23:21:24.869Z,16.92
2022-09-13T23:23:54.089Z,16.92
2022-09-13T23:26:23.817Z,16.92
2022-09-13T23:28:55.435Z,16.91
2022-09-13T23:31:25.876Z,16.90
2022-09-13T23:33:55.760Z,16.91
2022-09-13T23:36:25.113Z,16.90
2022-09-13T23:38:57.099Z,16.91
2022-09-13T23:41:25.844Z,16.93
2022-09-13T23:43:54.482Z,16.89
2022-09-13T23:46:22.331Z,16.89
2022-09-13T23:48:51.487Z,16.88
2022-09-13T23:51:22.830Z,16.88
2022-09-13T23:53:51.911Z,16.88
2022-09-13T23:56:20.018Z,16.88
2022-09-13T23:58:47.951Z,16.88
